Terminal Aerodrome Forecast
Issued by NWS

Home | Current Version | Previous Version | Text Only | Print | Product List | Glossary On
Versions: 1 2 3 4 5 6 7 8 9 10 11 12 13
000
FTUS42 KTBW 181305 AAA
TAFPIE
TAF AMD
KPIE 181305Z 1813/1912 18006KT P6SM SCT007 BKN250
      TEMPO 1813/1814 6SM BR BKN007
     FM181500 20006KT P6SM SCT040 BKN250
     FM182000 27010KT P6SM SCT025 BKN050
     FM190000 VRB05KT P6SM SCT030 BKN100
     FM190600 16003KT P6SM BKN250=

USA.gov is the U.S. government's official web portal to all federal, state and local government web resources and services.